Time;durP1;ratioP1;P1;durP2;ratioP2;P2;SDS_P1;SDS_P2;PMS_P1;PMS_P2;Temp;Humidity;BMP_temperature;BMP_pressure;BME280_temperature;BME280_humidity;BME280_pressure;Samples;Min_cycle;Max_cycle;Signal;HPM_P1;HPM_P2
2022/12/06 05:36:44;;;;;;;54.42;24.20;;;0.40;99.90;;;;;;7640466;19;20401;-76
2022/12/06 05:39:17;;;;;;;63.95;26.30;;;0.40;99.90;;;;;;7646839;19;20037;-77
2022/12/06 05:41:49;;;;;;;49.25;23.13;;;0.40;99.90;;;;;;7651917;19;20022;-77
2022/12/06 05:44:21;;;;;;;50.72;22.38;;;0.40;99.90;;;;;;7629211;19;20018;-75
2022/12/06 05:46:53;;;;;;;53.22;24.15;;;0.50;99.90;;;;;;7623395;19;20043;-75
2022/12/06 05:49:26;;;;;;;59.22;26.23;;;0.60;99.90;;;;;;7632677;19;20345;-76
2022/12/06 05:51:58;;;;;;;57.30;25.42;;;0.70;99.90;;;;;;7631155;19;20018;-76
2022/12/06 05:54:35;;;;;;;55.70;24.92;;;0.70;99.90;;;;;;7636470;19;20022;-75
2022/12/06 05:57:07;;;;;;;55.42;23.17;;;0.80;99.90;;;;;;7626579;19;20357;-75
2022/12/06 05:59:40;;;;;;;53.63;24.77;;;0.80;99.90;;;;;;7629038;19;20015;-76
2022/12/06 06:02:12;;;;;;;52.40;24.33;;;0.80;99.90;;;;;;7633147;19;20106;-75
2022/12/06 06:04:44;;;;;;;51.38;22.67;;;0.80;99.90;;;;;;7621117;19;20052;-75
2022/12/06 06:07:16;;;;;;;56.13;26.23;;;0.90;99.90;;;;;;7634794;19;20010;-76
2022/12/06 06:09:48;;;;;;;90.85;44.17;;;0.90;99.90;;;;;;7626673;19;20016;-75
2022/12/06 06:12:20;;;;;;;73.15;38.13;;;0.90;99.90;;;;;;7618143;19;20022;-75
2022/12/06 06:14:53;;;;;;;55.00;26.45;;;0.90;99.90;;;;;;7605135;19;20014;-75
2022/12/06 06:17:25;;;;;;;46.25;22.65;;;1.00;99.90;;;;;;7580634;19;20078;-76
2022/12/06 06:19:57;;;;;;;47.75;22.52;;;0.90;99.90;;;;;;7636911;19;20018;-77
2022/12/06 06:22:29;;;;;;;59.60;25.15;;;0.90;99.90;;;;;;7645987;19;20025;-77
2022/12/06 06:25:01;;;;;;;42.55;20.33;;;0.90;99.90;;;;;;7627750;19;20024;-75
2022/12/06 06:27:38;;;;;;;56.63;23.27;;;1.00;99.90;;;;;;7631053;19;20367;-74
2022/12/06 06:30:12;;;;;;;48.88;21.17;;;0.90;99.90;;;;;;7633337;19;20583;-75
2022/12/06 06:32:44;;;;;;;49.60;21.38;;;0.80;99.90;;;;;;7608884;19;20095;-76
2022/12/06 06:35:16;;;;;;;59.53;24.00;;;0.90;99.90;;;;;;7624598;19;20056;-76
2022/12/06 06:37:48;;;;;;;50.75;22.33;;;1.00;99.90;;;;;;7618908;19;20026;-75
2022/12/06 06:40:21;;;;;;;45.55;20.75;;;1.00;99.90;;;;;;7627028;19;20018;-76
2022/12/06 06:42:54;;;;;;;57.00;24.95;;;0.90;99.90;;;;;;7617522;19;20022;-76
2022/12/06 06:45:27;;;;;;;58.42;26.20;;;0.80;99.90;;;;;;7646723;19;20125;-76
2022/12/06 06:47:59;;;;;;;65.82;25.90;;;0.80;99.90;;;;;;7609740;19;20018;-76
2022/12/06 06:50:32;;;;;;;51.17;22.77;;;0.90;99.90;;;;;;7618698;19;20090;-76
2022/12/06 06:53:05;;;;;;;56.20;26.27;;;1.00;99.90;;;;;;7601700;19;20026;-77
2022/12/06 06:55:37;;;;;;;59.65;25.83;;;1.00;99.90;;;;;;7600163;19;20014;-75
2022/12/06 06:58:10;;;;;;;58.92;27.38;;;1.10;99.90;;;;;;7597873;19;20034;-77
2022/12/06 07:00:42;;;;;;;60.90;28.92;;;1.20;99.90;;;;;;7609849;19;20422;-75
2022/12/06 07:03:15;;;;;;;60.50;28.33;;;1.20;99.90;;;;;;7604036;19;20022;-75
2022/12/06 07:05:54;;;;;;;56.00;27.20;;;1.20;99.90;;;;;;7608752;19;20058;-75
2022/12/06 07:08:28;;;;;;;61.22;27.00;;;1.30;99.90;;;;;;7598241;19;21782;-74
2022/12/06 07:11:00;;;;;;;59.25;27.40;;;1.30;99.90;;;;;;7601054;19;20029;-75
2022/12/06 07:13:33;;;;;;;62.70;29.23;;;1.40;99.90;;;;;;7588865;19;20392;-75
2022/12/06 07:16:07;;;;;;;56.13;26.58;;;1.40;99.90;;;;;;7591989;19;20022;-75
2022/12/06 15:35:17;;;;;;;26.15;14.75;;;3.00;99.90;;;;;;7624250;19;20374;-70
2022/12/06 15:37:49;;;;;;;26.23;14.98;;;3.00;99.90;;;;;;7630820;19;20513;-70
2022/12/06 15:40:21;;;;;;;30.05;16.77;;;3.00;99.90;;;;;;7632175;19;20082;-69
2022/12/06 15:42:54;;;;;;;30.23;17.25;;;3.10;99.90;;;;;;7635332;19;20501;-68
2022/12/06 15:45:33;;;;;;;30.27;16.38;;;3.10;99.90;;;;;;7618486;19;20028;-67
2022/12/06 15:48:05;;;;;;;28.88;14.45;;;3.20;99.90;;;;;;7626137;19;20406;-67
2022/12/06 15:50:37;;;;;;;26.65;15.80;;;3.30;99.90;;;;;;7614180;19;20022;-68
2022/12/06 15:53:16;;;;;;;21.52;14.20;;;3.40;99.90;;;;;;7635889;19;20010;-67
2022/12/06 15:55:48;;;;;;;28.38;14.63;;;3.50;99.90;;;;;;7608738;19;20658;-67
2022/12/06 15:58:21;;;;;;;29.42;15.43;;;3.50;99.90;;;;;;7635550;19;20495;-68
2022/12/06 16:00:55;;;;;;;28.27;16.88;;;3.50;99.90;;;;;;7588113;19;20667;-68
2022/12/06 16:03:27;;;;;;;25.02;14.20;;;3.60;99.90;;;;;;7589186;19;20085;-67
2022/12/06 16:05:59;;;;;;;29.92;15.27;;;3.70;99.90;;;;;;7588473;19;20018;-67
2022/12/06 16:08:31;;;;;;;20.25;12.57;;;3.90;99.90;;;;;;7564516;19;20673;-68
2022/12/06 16:11:03;;;;;;;22.77;15.10;;;3.90;99.90;;;;;;7574201;19;20014;-67
2022/12/06 16:13:43;;;;;;;24.08;14.18;;;3.80;99.90;;;;;;6558590;19;10000603;-67
2022/12/06 16:16:18;;;;;;;21.80;11.85;;;3.70;99.90;;;;;;7576616;19;20444;-68
2022/12/06 16:18:51;;;;;;;21.42;12.02;;;3.80;99.90;;;;;;7551873;19;20085;-67
2022/12/06 16:21:30;;;;;;;20.98;11.48;;;3.70;99.90;;;;;;7585813;19;20085;-69
2022/12/06 16:24:08;;;;;;;20.40;12.18;;;3.70;99.90;;;;;;7599562;19;20014;-67
2022/12/06 16:26:45;;;;;;;21.40;11.35;;;3.80;99.90;;;;;;7599690;19;20022;-68
2022/12/06 16:29:22;;;;;;;17.33;10.05;;;3.80;99.90;;;;;;7599652;19;20025;-68
2022/12/06 16:31:54;;;;;;;20.10;10.50;;;3.70;99.90;;;;;;7590989;19;20007;-67
2022/12/06 16:34:28;;;;;;;19.25;10.60;;;3.70;99.90;;;;;;7594827;19;21013;-68
2022/12/06 16:37:07;;;;;;;18.15;10.88;;;3.60;99.90;;;;;;7576534;19;20503;-67
2022/12/06 16:39:40;;;;;;;18.73;11.50;;;3.60;99.90;;;;;;7575795;19;20022;-69
2022/12/06 16:42:12;;;;;;;17.42;10.80;;;3.60;99.90;;;;;;7609532;19;20094;-69
2022/12/06 16:44:50;;;;;;;22.75;12.68;;;3.50;99.90;;;;;;7584952;19;20041;-67
2022/12/06 16:47:22;;;;;;;18.70;11.20;;;3.60;99.90;;;;;;7575468;19;20027;-69
2022/12/06 16:49:53;;;;;;;16.70;11.60;;;3.50;99.90;;;;;;7534760;19;20094;-68
2022/12/06 16:52:26;;;;;;;19.67;11.82;;;3.50;99.90;;;;;;7567460;19;20011;-68
2022/12/06 16:54:58;;;;;;;19.15;11.65;;;3.50;99.90;;;;;;7548862;19;20524;-69
2022/12/06 16:57:31;;;;;;;20.95;12.20;;;3.50;99.90;;;;;;7553250;19;20017;-69
2022/12/06 17:00:04;;;;;;;27.52;13.05;;;3.50;99.90;;;;;;7545814;19;20026;-68
2022/12/06 17:02:36;;;;;;;30.33;16.35;;;3.50;99.90;;;;;;7559219;19;20030;-67
2022/12/06 17:05:18;;;;;;;27.55;15.07;;;3.40;99.90;;;;;;7565551;19;20025;-69
2022/12/06 17:07:50;;;;;;;27.52;14.38;;;3.50;99.90;;;;;;7592052;19;20138;-67
2022/12/06 17:10:23;;;;;;;26.33;13.50;;;3.40;99.90;;;;;;7590589;19;20022;-67
2022/12/06 17:12:55;;;;;;;24.25;12.75;;;3.40;99.90;;;;;;7566254;19;20011;-67
2022/12/06 17:15:28;;;;;;;25.48;14.00;;;3.40;99.90;;;;;;7558252;19;20089;-67
2022/12/06 17:18:00;;;;;;;25.23;14.15;;;3.30;99.90;;;;;;7540177;19;20621;-68
2022/12/06 17:20:32;;;;;;;24.02;13.77;;;3.30;99.90;;;;;;7559987;19;20687;-68
2022/12/06 17:23:04;;;;;;;25.25;14.73;;;3.30;99.90;;;;;;7558049;19;21186;-68
2022/12/06 17:25:36;;;;;;;25.42;15.15;;;3.30;99.90;;;;;;7556211;19;20488;-69
2022/12/06 17:28:09;;;;;;;25.83;14.32;;;3.30;99.90;;;;;;7570380;19;20014;-68
2022/12/06 17:30:41;;;;;;;26.83;15.60;;;3.20;99.90;;;;;;7549758;19;20019;-68
2022/12/06 17:33:20;;;;;;;24.50;14.35;;;3.30;99.90;;;;;;7572550;19;20360;-69
2022/12/06 17:35:54;;;;;;;25.70;14.60;;;3.30;99.90;;;;;;7563903;19;20037;-68
2022/12/06 17:38:28;;;;;;;25.38;14.88;;;3.30;99.90;;;;;;7571700;19;20022;-68
2022/12/06 17:42:58;;;;;;;30.48;16.00;;;3.20;99.90;;;;;;7575137;19;20795;-67
2022/12/06 17:43:53;;;;;;;29.75;15.75;;;3.30;99.90;;;;;;7565427;19;20040;-69
2022/12/06 17:46:27;;;;;;;26.45;15.68;;;3.30;99.90;;;;;;7556839;19;20526;-68
2022/12/06 17:49:00;;;;;;;27.67;15.65;;;3.30;99.90;;;;;;7581093;19;20018;-69
2022/12/06 17:51:32;;;;;;;30.58;16.77;;;3.20;99.90;;;;;;7560655;19;20651;-69
2022/12/06 17:54:05;;;;;;;31.30;15.57;;;3.20;99.90;;;;;;7567372;19;20017;-70
2022/12/06 17:56:43;;;;;;;28.80;16.30;;;3.20;99.90;;;;;;7576131;19;20022;-70
2022/12/06 17:59:21;;;;;;;27.42;15.93;;;3.20;99.90;;;;;;7570684;19;20025;-68
2022/12/06 18:01:58;;;;;;;25.40;14.82;;;3.30;99.90;;;;;;7576980;19;20022;-69
2022/12/06 18:04:47;;;;;;;26.52;15.63;;;3.20;99.90;;;;;;7589051;19;20489;-69
2022/12/06 18:07:19;;;;;;;20.95;11.88;;;3.30;99.90;;;;;;7602961;19;20018;-69
2022/12/06 18:09:52;;;;;;;22.20;12.48;;;3.20;99.90;;;;;;7583690;19;20293;-70
2022/12/06 18:12:24;;;;;;;20.27;12.00;;;3.20;99.90;;;;;;7581241;19;20421;-70
2022/12/06 18:14:59;;;;;;;21.14;11.24;;;3.20;99.90;;;;;;6564093;19;10000540;-68
2022/12/06 18:17:32;;;;;;;19.25;12.02;;;3.20;99.90;;;;;;7578065;19;20022;-68
2022/12/06 18:20:07;;;;;;;19.30;11.63;;;3.20;99.90;;;;;;7572295;19;20026;-68
2022/12/06 18:22:40;;;;;;;24.02;13.90;;;3.20;99.90;;;;;;7553577;19;20010;-69
2022/12/06 18:25:12;;;;;;;23.55;13.68;;;3.20;99.90;;;;;;7576776;19;20031;-70
2022/12/06 18:27:44;;;;;;;21.77;12.48;;;3.20;99.90;;;;;;7568424;19;20033;-68
2022/12/06 18:30:17;;;;;;;18.85;12.13;;;3.20;99.90;;;;;;7562841;19;20017;-68
2022/12/06 18:32:49;;;;;;;25.42;13.18;;;3.20;99.90;;;;;;7544574;19;20014;-69
2022/12/06 18:35:21;;;;;;;25.38;15.70;;;3.20;99.90;;;;;;7564875;19;20017;-68
2022/12/06 18:37:55;;;;;;;27.95;15.48;;;3.20;99.90;;;;;;7552108;19;20856;-67
2022/12/06 18:40:31;;;;;;;22.80;14.52;;;3.20;99.90;;;;;;7558737;19;20708;-73
2022/12/06 18:43:03;;;;;;;21.98;13.98;;;3.20;99.90;;;;;;7574087;19;20025;-73
2022/12/06 18:45:36;;;;;;;23.83;15.00;;;3.20;99.90;;;;;;7540278;19;20030;-75
2022/12/06 18:48:08;;;;;;;24.67;14.97;;;3.20;99.90;;;;;;7558506;19;20011;-74
2022/12/06 18:50:40;;;;;;;22.08;14.15;;;3.20;99.90;;;;;;7532127;19;20339;-73
2022/12/06 18:53:13;;;;;;;25.75;14.57;;;3.20;99.90;;;;;;7567720;19;20117;-73
2022/12/06 18:55:45;;;;;;;28.17;15.52;;;3.20;99.90;;;;;;7568217;19;20596;-73
2022/12/06 18:58:17;;;;;;;26.70;14.95;;;3.30;99.90;;;;;;7554441;19;20010;-75
2022/12/06 19:00:49;;;;;;;25.63;14.60;;;3.20;99.90;;;;;;7554392;19;20031;-73
2022/12/06 19:03:21;;;;;;;25.17;15.65;;;3.30;99.90;;;;;;7537575;19;20010;-75
2022/12/06 19:05:54;;;;;;;24.10;14.77;;;3.30;99.90;;;;;;7549758;19;20018;-75
2022/12/06 19:08:36;;;;;;;20.85;12.95;;;3.30;99.90;;;;;;7533415;19;20738;-76
2022/12/06 19:11:19;;;;;;;21.25;13.07;;;3.30;99.90;;;;;;7520630;19;20090;-75
2022/12/06 19:13:52;;;;;;;20.40;13.27;;;3.30;99.90;;;;;;7546908;19;20011;-73
2022/12/06 19:16:28;;;;;;;21.63;13.05;;;3.30;99.90;;;;;;7542671;19;20018;-75
2022/12/06 19:19:02;;;;;;;19.73;13.85;;;3.20;99.90;;;;;;7529250;19;20019;-74
2022/12/06 19:21:35;;;;;;;23.38;14.27;;;3.30;99.90;;;;;;7553865;19;20020;-72
2022/12/06 19:24:08;;;;;;;25.48;15.50;;;3.30;99.90;;;;;;7555640;19;20525;-75
2022/12/06 19:26:41;;;;;;;22.88;13.02;;;3.20;99.90;;;;;;7579475;19;20098;-73
2022/12/06 19:29:14;;;;;;;19.30;11.80;;;3.30;99.90;;;;;;7567935;19;20022;-74
2022/12/06 19:31:46;;;;;;;25.48;13.48;;;3.20;99.90;;;;;;7569730;19;20014;-76
2022/12/06 19:34:22;;;;;;;19.98;12.35;;;3.20;99.90;;;;;;7560020;19;20025;-73
2022/12/06 19:36:55;;;;;;;21.58;12.82;;;3.20;99.90;;;;;;7550393;19;21185;-75
2022/12/06 19:39:27;;;;;;;;;;;3.20;99.90;;;;;;7569368;19;20014;-73
2022/12/06 19:44:51;;;;;;;43.83;16.67;;;3.20;99.90;;;;;;7570702;19;20022;-74
2022/12/06 19:47:23;;;;;;;20.05;12.40;;;3.20;99.90;;;;;;7567949;19;20639;-76
